Time;durP1;ratioP1;P1;durP2;ratioP2;P2;SDS_P1;SDS_P2;PMS_P1;PMS_P2;Temp;Humidity;BMP_temperature;BMP_pressure;BME280_temperature;BME280_humidity;BME280_pressure;Samples;Min_cycle;Max_cycle;Signal;HPM_P1;HPM_P2
2022/03/29 00:00:38;;;;;;;6.88;6.15;;;;;;;19.47;40.40;100965.59;5059577;28;20050;-41
2022/03/29 00:03:08;;;;;;;6.78;5.95;;;;;;;19.46;40.22;100970.06;5065516;28;20255;-41
2022/03/29 00:05:35;;;;;;;9.18;5.80;;;;;;;19.48;40.28;100960.13;5065055;28;20365;-41
2022/03/29 00:08:01;;;;;;;6.72;5.97;;;;;;;19.47;40.16;100958.47;5063942;28;20028;-41
2022/03/29 00:10:27;;;;;;;6.90;5.80;;;;;;;19.48;40.13;100972.50;5063146;28;20061;-41
2022/03/29 00:12:53;;;;;;;6.95;5.90;;;;;;;19.46;40.14;100959.47;5064572;28;20064;-42
2022/03/29 00:15:23;;;;;;;7.05;6.20;;;;;;;19.46;40.22;100963.94;5061176;28;20182;-41
2022/03/29 00:17:48;;;;;;;7.80;6.22;;;;;;;19.46;40.26;100964.78;5055052;28;20375;-41
2022/03/29 00:20:16;;;;;;;7.25;5.57;;;;;;;19.46;40.27;100959.47;5064246;28;20021;-41
2022/03/29 00:22:41;;;;;;;6.50;5.68;;;;;;;19.45;40.27;100957.03;5062792;28;20051;-44
2022/03/29 00:25:07;;;;;;;7.35;6.18;;;;;;;19.44;40.18;100952.75;5064461;28;20033;-41
2022/03/29 00:27:35;;;;;;;6.95;6.22;;;;;;;19.44;40.28;100953.56;5052062;28;20091;-40
2022/03/29 00:30:11;;;;;;;6.93;6.22;;;;;;;19.43;40.19;100954.56;5063044;28;20036;-42
2022/03/29 00:32:39;;;;;;;6.90;6.18;;;;;;;19.43;40.45;100949.28;5066044;28;20079;-41
2022/03/29 00:35:06;;;;;;;6.90;6.10;;;;;;;19.42;40.22;100955.59;5064439;28;20123;-41
2022/03/29 00:37:31;;;;;;;6.53;5.47;;;;;;;19.42;40.36;100952.94;5064114;28;20024;-41
2022/03/29 00:39:57;;;;;;;6.70;6.07;;;;;;;19.42;40.23;100946.84;5065175;28;20040;-42
2022/03/29 00:42:22;;;;;;;6.03;5.47;;;;;;;19.42;40.17;100945.00;5065035;28;20033;-41
2022/03/29 00:44:48;;;;;;;6.05;5.45;;;;;;;19.43;40.22;100946.66;5059891;28;20032;-43
2022/03/29 00:47:14;;;;;;;6.25;5.65;;;;;;;19.43;40.28;100954.56;5062810;28;20070;-42
2022/03/29 00:49:39;;;;;;;6.50;5.22;;;;;;;19.43;40.12;100951.94;5064482;28;20060;-41
2022/03/29 00:52:05;;;;;;;6.38;5.78;;;;;;;19.43;40.24;100957.22;5063934;28;20459;-49
2022/03/29 00:54:34;;;;;;;6.70;5.93;;;;;;;19.43;40.31;100951.94;5064562;28;20024;-41
2022/03/29 00:57:02;;;;;;;6.20;5.25;;;;;;;19.45;40.23;100949.09;5063243;28;20112;-41
2022/03/29 00:59:28;;;;;;;6.95;5.40;;;;;;;19.44;39.89;100948.28;5063972;28;20083;-41
2022/03/29 01:01:57;;;;;;;5.93;4.80;;;;;;;19.45;40.17;100944.63;5064846;28;20068;-40
2022/03/29 01:04:22;;;;;;;5.10;4.65;;;;;;;19.45;40.18;100947.28;5062072;28;20032;-41
2022/03/29 01:06:48;;;;;;;5.85;5.25;;;;;;;19.44;40.08;100935.06;5064920;28;20369;-41
2022/03/29 01:09:51;;;;;;;5.78;5.28;;;;;;;19.45;40.05;100939.34;5063607;28;20380;-41
2022/03/29 01:12:16;;;;;;;6.03;5.43;;;;;;;19.41;40.20;100927.53;5063769;28;20052;-41
2022/03/29 01:14:42;;;;;;;5.93;5.43;;;;;;;19.42;40.08;100926.53;5068148;28;20031;-40
2022/03/29 01:19:53;;;;;;;6.10;5.60;;;;;;;19.40;40.19;100919.78;5069089;28;20106;-40
2022/03/29 01:22:21;;;;;;;6.45;5.85;;;;;;;19.41;40.02;100913.50;5064339;28;20035;-41
2022/03/29 01:24:47;;;;;;;6.13;5.53;;;;;;;19.41;39.97;100914.31;5068941;28;20110;-43
2022/03/29 01:27:13;;;;;;;6.53;5.93;;;;;;;19.41;39.93;100897.66;5068173;28;20178;-41
2022/03/29 01:29:39;;;;;;;6.22;5.63;;;;;;;19.41;39.99;100905.56;5066546;28;20432;-41
2022/03/29 01:32:08;;;;;;;6.05;5.47;;;;;;;19.39;39.99;100900.47;5062809;28;20032;-41
2022/03/29 01:34:37;;;;;;;6.50;5.45;;;;;;;19.39;39.91;100903.13;5068045;28;20094;-41
2022/03/29 01:37:04;;;;;;;9.90;6.32;;;;;;;19.38;40.13;100901.47;5068815;28;20449;-40
2022/03/29 01:39:29;;;;;;;5.40;4.90;;;;;;;19.37;39.99;100891.97;5066046;28;20218;-41
2022/03/29 01:41:54;;;;;;;5.35;4.85;;;;;;;19.37;40.04;100891.13;5067440;28;20040;-41
2022/03/29 01:44:38;;;;;;;6.32;5.70;;;;;;;19.36;40.17;100892.16;5066393;28;20028;-40
2022/03/29 01:47:08;;;;;;;6.05;5.05;;;;;;;19.34;40.32;100894.97;5067831;28;20028;-40
2022/03/29 01:49:34;;;;;;;6.43;5.82;;;;;;;19.35;40.33;100899.25;5067159;28;20060;-40
2022/03/29 01:52:00;;;;;;;5.72;5.22;;;;;;;19.34;40.34;100889.69;5068054;28;20032;-40
2022/03/29 01:54:26;;;;;;;6.50;5.90;;;;;;;19.34;40.46;100891.53;5066351;28;20037;-40
2022/03/29 01:56:52;;;;;;;6.55;5.93;;;;;;;19.33;40.33;100880.13;5068152;28;20112;-40
2022/03/29 01:59:17;;;;;;;5.78;5.20;;;;;;;19.32;40.54;100889.06;5065992;28;20422;-40
2022/03/29 02:01:46;;;;;;;9.10;5.53;;;;;;;19.31;40.44;100887.44;5067778;28;20037;-40
2022/03/29 02:07:12;;;;;;;7.13;5.50;;;;;;;19.29;40.39;100872.78;5064589;28;20079;-41
2022/03/29 02:09:37;;;;;;;6.07;5.57;;;;;;;19.28;40.52;100871.97;5065683;28;20043;-40
2022/03/29 02:12:05;;;;;;;6.63;5.50;;;;;;;19.29;40.45;100868.31;5280675;22;20053;-40
2022/03/29 02:14:30;;;;;;;6.03;5.15;;;;;;;19.28;40.41;100866.69;5086929;28;20101;-40
2022/03/29 02:16:56;;;;;;;6.80;5.72;;;;;;;19.28;40.38;100866.69;5088808;28;20024;-40
2022/03/29 02:19:21;;;;;;;6.57;5.43;;;;;;;19.30;40.27;100871.78;5088675;28;20234;-40
2022/03/29 02:21:47;;;;;;;5.63;5.03;;;;;;;19.29;40.20;100863.03;5088766;28;20598;-40
2022/03/29 02:24:13;;;;;;;9.13;5.35;;;;;;;19.29;40.23;100860.38;5088107;28;20024;-40
2022/03/29 02:26:38;;;;;;;5.30;4.80;;;;;;;19.28;40.32;100861.41;5088390;28;20460;-40
2022/03/29 02:29:03;;;;;;;5.78;5.28;;;;;;;19.28;40.20;100858.75;5088603;28;20040;-40
2022/03/29 02:31:29;;;;;;;6.13;5.53;;;;;;;19.29;40.06;100857.75;5088724;28;20382;-40
2022/03/29 02:33:54;;;;;;;5.70;5.15;;;;;;;19.28;40.12;100845.53;5088339;28;20421;-40
2022/03/29 02:36:20;;;;;;;6.63;5.97;;;;;;;19.28;40.07;100845.53;5088558;28;20152;-40
2022/03/29 02:38:45;;;;;;;7.35;5.28;;;;;;;19.29;40.04;100841.91;5088460;28;20024;-40
2022/03/29 02:41:11;;;;;;;6.18;5.40;;;;;;;19.27;40.11;100833.34;5088343;28;20356;-40
2022/03/29 02:43:36;;;;;;;5.88;5.00;;;;;;;19.27;40.24;100827.25;5088731;28;20028;-40
2022/03/29 02:46:03;;;;;;;5.80;5.25;;;;;;;19.26;40.14;100825.63;5088250;28;20082;-40
2022/03/29 02:48:30;;;;;;;5.43;4.93;;;;;;;19.26;40.04;100817.69;5088321;28;20463;-40
2022/03/29 02:50:56;;;;;;;5.65;5.15;;;;;;;19.26;40.04;100821.16;5088336;28;20044;-40
2022/03/29 02:53:22;;;;;;;7.22;5.57;;;;;;;19.28;40.13;100818.31;5088187;28;20028;-40
2022/03/29 02:55:47;;;;;;;7.10;5.32;;;;;;;19.28;40.09;100813.84;5088298;28;20035;-39
2022/03/29 02:58:13;;;;;;;6.25;5.65;;;;;;;19.28;40.05;100816.50;5088008;28;20513;-40
2022/03/29 03:00:39;;;;;;;5.93;5.30;;;;;;;19.28;40.18;100813.84;5088142;28;20115;-40
2022/03/29 03:03:04;;;;;;;6.18;5.63;;;;;;;19.29;40.10;100814.66;5087534;28;20024;-40
2022/03/29 03:05:30;;;;;;;5.63;4.85;;;;;;;19.29;39.93;100799.63;5088084;28;20120;-40
2022/03/29 03:07:56;;;;;;;5.88;5.10;;;;;;;19.30;39.90;100805.72;5087938;28;20044;-40
2022/03/29 03:10:22;;;;;;;6.32;5.70;;;;;;;19.29;39.99;100798.81;5087877;28;20073;-40
2022/03/29 03:12:49;;;;;;;5.53;5.03;;;;;;;19.30;39.96;100790.69;5069063;28;20084;-40
2022/03/29 03:15:21;;;;;;;6.13;5.53;;;;;;;19.30;39.95;100795.97;5087873;28;20024;-40
2022/03/29 03:17:47;;;;;;;5.80;5.10;;;;;;;19.28;40.37;100792.72;5087448;28;20044;-40
2022/03/29 03:20:13;;;;;;;5.47;4.93;;;;;;;19.28;39.84;100792.72;5087477;28;20035;-40
2022/03/29 03:22:39;;;;;;;5.38;4.78;;;;;;;19.28;39.97;100794.53;5087516;28;20348;-40
2022/03/29 03:25:06;;;;;;;5.82;5.32;;;;;;;19.27;39.99;100788.44;5087580;28;20032;-40
2022/03/29 03:27:31;;;;;;;6.03;5.43;;;;;;;19.27;39.91;100784.97;5087233;28;20275;-40
2022/03/29 03:29:57;;;;;;;6.15;5.55;;;;;;;19.26;40.08;100778.06;5087654;28;20179;-40
2022/03/29 03:32:22;;;;;;;5.85;5.35;;;;;;;19.26;39.93;100780.72;5087378;28;20024;-40
2022/03/29 03:34:48;;;;;;;7.43;5.47;;;;;;;19.25;39.89;100774.59;5087535;28;20032;-40
2022/03/29 03:37:13;;;;;;;6.18;5.57;;;;;;;19.25;39.75;100777.25;5087448;28;20560;-40
2022/03/29 03:39:39;;;;;;;5.78;5.20;;;;;;;19.25;39.70;100773.78;5087282;28;20034;-40
2022/03/29 03:42:06;;;;;;;6.10;5.60;;;;;;;19.25;39.81;100769.31;5087363;28;20036;-39
2022/03/29 03:44:32;;;;;;;7.40;5.68;;;;;;;19.25;39.67;100773.78;5087089;28;20399;-40
2022/03/29 03:46:57;;;;;;;6.80;6.10;;;;;;;19.23;39.85;100769.53;5086749;28;20036;-40
2022/03/29 03:49:23;;;;;;;7.13;5.10;;;;;;;19.24;39.77;100772.97;5086928;28;20063;-40
2022/03/29 03:51:48;;;;;;;5.65;5.15;;;;;;;19.23;39.87;100760.78;5087032;28;20032;-39
2022/03/29 03:54:33;;;;;;;5.88;5.18;;;;;;;19.22;39.72;100762.59;5087043;28;20055;-40
2022/03/29 03:56:58;;;;;;;6.15;5.25;;;;;;;19.20;39.95;100763.81;5086893;28;20396;-40
2022/03/29 03:59:23;;;;;;;5.65;5.15;;;;;;;19.19;39.74;100756.88;5086819;28;20305;-40
2022/03/29 04:01:49;;;;;;;5.70;5.20;;;;;;;19.19;40.00;100762.16;5087004;28;20486;-40
2022/03/29 04:04:14;;;;;;;6.38;5.13;;;;;;;19.19;39.90;100762.16;5087036;28;20466;-40
2022/03/29 04:06:40;;;;;;;5.03;4.63;;;;;;;19.18;39.91;100755.25;5087077;28;20421;-40
2022/03/29 04:09:06;;;;;;;5.70;5.18;;;;;;;19.17;39.77;100748.34;5086939;28;20094;-40
2022/03/29 04:14:54;;;;;;;5.82;5.22;;;;;;;19.13;39.96;100755.03;5066596;28;20125;-40
2022/03/29 04:17:20;;;;;;;8.27;5.40;;;;;;;19.13;40.01;100752.38;5066755;28;20047;-39
2022/03/29 04:19:45;;;;;;;5.50;4.40;;;;;;;19.13;40.01;100747.91;5066390;28;20029;-39
2022/03/29 04:22:11;;;;;;;5.32;4.18;;;;;;;19.14;40.04;100744.25;5066529;28;20028;-39
2022/03/29 04:24:36;;;;;;;6.45;5.65;;;;;;;19.18;41.31;100739.41;5066398;28;20510;-40
2022/03/29 04:27:02;;;;;;;15.48;9.30;;;;;;;19.27;43.47;100743.53;5066608;28;20047;-40
2022/03/29 04:29:28;;;;;;;14.35;7.47;;;;;;;19.31;44.42;100726.28;5066487;28;20067;-40
2022/03/29 04:31:54;;;;;;;9.85;6.05;;;;;;;19.30;43.30;100737.88;5066383;28;20570;-40
2022/03/29 04:34:19;;;;;;;11.27;6.13;;;;;;;19.26;42.83;100736.63;5066374;28;20025;-40
2022/03/29 04:36:45;;;;;;;8.88;5.75;;;;;;;19.24;42.41;100728.06;5066339;28;20312;-40
2022/03/29 04:39:10;;;;;;;9.48;6.75;;;;;;;19.22;42.14;100725.63;5066122;28;20079;-40
2022/03/29 04:41:36;;;;;;;9.80;5.70;;;;;;;19.22;42.03;100715.06;5066386;28;20074;-41
2022/03/29 04:44:01;;;;;;;8.63;5.70;;;;;;;19.21;41.49;100720.53;5066115;28;20059;-41
2022/03/29 04:46:27;;;;;;;6.55;4.88;;;;;;;19.21;41.41;100716.06;5066433;28;20208;-40
2022/03/29 04:48:57;;;;;;;9.98;5.00;;;;;;;19.21;41.43;100712.59;5068634;28;20024;-39
2022/03/29 04:51:23;;;;;;;15.10;5.82;;;;;;;19.22;41.41;100712.41;5070297;28;20075;-41
2022/03/29 04:53:49;;;;;;;9.35;5.28;;;;;;;19.21;41.43;100709.97;5070206;28;20415;-42
2022/03/29 05:02:58;;;;;;;6.22;5.50;;;;;;;19.18;40.88;100699.78;5050451;28;20047;-39
2022/03/29 05:05:23;;;;;;;6.30;5.10;;;;;;;19.20;40.81;100697.78;5049220;28;20021;-39
2022/03/29 05:07:49;;;;;;;6.82;5.43;;;;;;;19.21;40.78;100688.84;5049914;28;20052;-40
2022/03/29 05:10:14;;;;;;;7.25;5.13;;;;;;;19.21;40.60;100687.00;5048042;28;20435;-40
2022/03/29 05:12:49;;;;;;;8.00;5.75;;;;;;;19.21;40.60;100683.56;5049794;28;20144;-40
2022/03/29 05:15:16;;;;;;;8.38;5.47;;;;;;;19.21;40.44;100689.66;5049627;28;20017;-39
2022/03/29 05:17:42;;;;;;;7.00;5.00;;;;;;;19.22;40.45;100682.53;5049552;28;20341;-40
2022/03/29 05:20:10;;;;;;;7.25;5.47;;;;;;;19.23;40.46;100689.47;5049068;28;20512;-40
2022/03/29 05:22:44;;;;;;;8.38;5.22;;;;;;;19.21;40.26;100686.19;5049791;28;20624;-40
2022/03/29 05:25:10;;;;;;;8.75;5.30;;;;;;;19.22;40.35;100682.53;5048882;28;20028;-40
2022/03/29 05:27:36;;;;;;;7.85;6.28;;;;;;;19.22;40.29;100682.53;5049442;28;20025;-40
2022/03/29 05:30:01;;;;;;;5.82;5.32;;;;;;;19.21;40.22;100680.91;5048603;28;20029;-40
2022/03/29 05:32:27;;;;;;;8.80;5.43;;;;;;;19.19;40.45;100678.47;5048800;28;20477;-39
2022/03/29 05:34:52;;;;;;;7.45;5.72;;;;;;;19.18;40.63;100676.03;5049576;28;20033;-39
2022/03/29 05:37:17;;;;;;;5.82;5.10;;;;;;;19.18;40.47;100671.56;5049105;28;20033;-40
2022/03/29 05:39:43;;;;;;;5.03;4.50;;;;;;;19.17;40.62;100671.75;5048640;28;20025;-39
2022/03/29 05:42:10;;;;;;;7.97;4.60;;;;;;;19.17;40.58;100669.09;5049227;28;20500;-39
2022/03/29 05:44:37;;;;;;;6.10;5.10;;;;;;;19.17;40.54;100674.38;5048624;28;20337;-39
2022/03/29 05:49:51;;;;;;;5.22;4.72;;;;;;;19.15;40.48;100663.19;5048162;28;20048;-39
2022/03/29 05:52:18;;;;;;;5.50;4.93;;;;;;;19.16;40.43;100672.75;5049186;28;20063;-40
2022/03/29 05:54:45;;;;;;;6.07;4.68;;;;;;;19.16;40.39;100665.66;5048652;28;20395;-39
2022/03/29 05:57:12;;;;;;;6.50;4.50;;;;;;;19.17;40.43;100666.47;5049095;28;20597;-39
2022/03/29 05:59:38;;;;;;;6.07;5.05;;;;;;;19.15;40.30;100666.66;5046961;28;20025;-39
2022/03/29 06:02:04;;;;;;;5.05;4.40;;;;;;;19.16;40.68;100667.47;5049119;28;20730;-39
2022/03/29 06:04:33;;;;;;;4.97;4.57;;;;;;;19.15;40.10;100674.59;5048960;28;20136;-40
2022/03/29 06:06:58;;;;;;;5.75;5.15;;;;;;;19.14;40.32;100667.66;5049024;28;20029;-39
2022/03/29 06:09:25;;;;;;;6.40;5.80;;;;;;;19.13;40.34;100665.22;5047988;28;20033;-39
2022/03/29 06:11:50;;;;;;;6.85;5.40;;;;;;;19.13;40.27;100673.16;5048141;28;20511;-39
2022/03/29 06:14:16;;;;;;;6.88;5.00;;;;;;;19.12;40.40;100672.34;5068493;28;20056;-39
2022/03/29 06:16:42;;;;;;;6.57;5.05;;;;;;;19.11;40.23;100672.53;5068719;28;20029;-39
2022/03/29 06:19:11;;;;;;;5.18;4.65;;;;;;;19.11;40.42;100680.44;5068814;28;20360;-40
2022/03/29 06:21:37;;;;;;;7.90;5.55;;;;;;;19.10;40.32;100684.09;5066467;28;20032;-39
2022/03/29 06:24:08;;;;;;;6.43;4.82;;;;;;;19.08;40.54;100681.66;5068585;28;20172;-39
2022/03/29 06:26:36;;;;;;;5.03;4.53;;;;;;;19.08;40.31;100683.47;5067368;28;20087;-39
2022/03/29 06:29:03;;;;;;;7.47;5.25;;;;;;;19.07;40.50;100687.13;5067699;28;20051;-39
2022/03/29 06:31:29;;;;;;;11.63;5.97;;;;;;;19.10;41.12;100694.66;5066210;28;20380;-39
2022/03/29 06:33:54;;;;;;;6.55;5.72;;;;;;;19.15;41.77;100703.63;5068521;28;20024;-40
2022/03/29 06:36:20;;;;;;;8.48;6.40;;;;;;;19.20;42.25;100695.13;5068053;28;20032;-40
2022/03/29 06:38:46;;;;;;;7.57;6.30;;;;;;;19.24;42.68;100709.59;5067438;28;20494;-40
2022/03/29 06:41:13;;;;;;;12.65;6.88;;;;;;;19.21;42.60;100709.97;5066865;28;20535;-39
2022/03/29 06:43:39;;;;;;;11.88;5.53;;;;;;;19.19;42.71;100706.72;5068118;28;20115;-40
2022/03/29 06:46:07;;;;;;;8.10;6.43;;;;;;;19.19;42.71;100704.06;5048965;28;20036;-39
2022/03/29 06:48:33;;;;;;;10.65;5.38;;;;;;;19.17;43.20;100698.97;5067898;28;20395;-41
2022/03/29 06:50:58;;;;;;;11.40;6.68;;;;;;;19.16;42.92;100712.38;5067690;28;20033;-42
2022/03/29 06:53:24;;;;;;;7.32;5.60;;;;;;;19.15;43.13;100710.75;5066861;28;20106;-41
2022/03/29 06:55:55;;;;;;;7.40;5.65;;;;;;;19.14;42.82;100706.47;5067609;28;20040;-42
2022/03/29 06:58:20;;;;;;;12.88;6.85;;;;;;;19.14;42.86;100715.22;5067844;28;20024;-41
2022/03/29 07:00:47;;;;;;;7.45;5.03;;;;;;;19.14;42.49;100717.03;5066497;28;20058;-40
2022/03/29 07:03:12;;;;;;;11.68;7.15;;;;;;;19.15;42.63;100718.66;5067637;28;20099;-41
2022/03/29 07:05:42;;;;;;;13.15;5.30;;;;;;;19.15;42.58;100716.03;5067400;28;20028;-40
2022/03/29 07:08:10;;;;;;;9.77;5.97;;;;;;;19.15;42.22;100727.41;5068013;28;20542;-40
2022/03/29 07:13:24;;;;;;;8.25;5.63;;;;;;;19.17;42.73;100729.84;5052678;28;20418;-39
2022/03/29 07:15:52;;;;;;;10.70;7.28;;;;;;;19.16;42.49;100726.41;5050782;28;20126;-41
2022/03/29 07:18:18;;;;;;;7.93;6.18;;;;;;;19.18;41.93;100723.56;5049559;28;20073;-40
2022/03/29 07:20:44;;;;;;;9.93;6.45;;;;;;;19.18;41.62;100718.28;5066138;28;20131;-41
2022/03/29 07:23:11;;;;;;;8.15;6.43;;;;;;;19.17;41.74;100712.19;5066981;28;20036;-42
2022/03/29 07:25:41;;;;;;;7.97;5.72;;;;;;;19.18;41.59;100711.16;5066482;28;20120;-40
2022/03/29 07:28:11;;;;;;;10.48;5.25;;;;;;;19.18;41.30;100707.72;5067349;28;20123;-40
2022/03/29 07:30:40;;;;;;;9.55;5.97;;;;;;;19.18;41.54;100705.88;5066770;28;20032;-41
2022/03/29 07:33:06;;;;;;;6.32;5.35;;;;;;;19.18;41.35;100713.81;5067123;28;20024;-40
2022/03/29 07:35:32;;;;;;;6.68;4.95;;;;;;;19.18;41.27;100715.63;5067133;28;20094;-40
2022/03/29 07:37:58;;;;;;;5.95;5.40;;;;;;;19.18;41.19;100713.81;5066919;28;20082;-44
2022/03/29 07:40:25;;;;;;;7.65;5.15;;;;;;;19.18;41.12;100708.53;5066014;28;20031;-40
2022/03/29 07:42:52;;;;;;;8.68;5.63;;;;;;;19.17;41.08;100717.47;5066966;28;20040;-40
2022/03/29 07:45:18;;;;;;;7.00;5.20;;;;;;;19.17;41.31;100714.00;5066737;28;20459;-39
2022/03/29 07:47:46;;;;;;;8.30;5.32;;;;;;;19.14;41.43;100717.84;5065213;28;20068;-39
2022/03/29 07:50:12;;;;;;;8.48;5.65;;;;;;;19.13;41.71;100721.50;5066033;28;20074;-41
2022/03/29 07:52:41;;;;;;;8.05;5.38;;;;;;;19.13;41.88;100720.69;5066629;28;20028;-39
2022/03/29 07:55:09;;;;;;;6.20;5.60;;;;;;;19.11;41.99;100712.97;5066456;28;20493;-40
2022/03/29 07:57:36;;;;;;;6.15;5.00;;;;;;;19.11;42.20;100715.59;5066584;28;20058;-41
2022/03/29 08:00:31;;;;;;;8.77;5.68;;;;;;;19.11;42.11;100720.06;5065984;28;20341;-41
2022/03/29 08:02:49;;;;;;;20.50;6.38;;;;;;;19.09;42.22;100716.81;5050442;28;20048;-44
2022/03/29 08:05:14;;;;;;;29.70;7.78;;;;;;;19.08;42.69;100709.88;5066853;28;20034;-46
2022/03/29 08:07:41;;;;;;;36.13;8.07;;;;;;;19.09;42.66;100711.53;5066429;28;20028;-43
2022/03/29 08:10:07;;;;;;;34.45;8.52;;;;;;;19.09;42.46;100708.88;5065963;28;20055;-39
2022/03/29 08:12:33;;;;;;;37.25;8.10;;;;;;;19.09;42.38;100706.25;5065190;28;20166;-40
2022/03/29 08:14:59;;;;;;;30.77;7.68;;;;;;;19.08;42.15;100708.06;5066302;28;20558;-40
2022/03/29 08:17:24;;;;;;;29.90;8.38;;;;;;;19.09;41.93;100703.59;5066696;28;20110;-40
2022/03/29 08:19:49;;;;;;;20.80;8.45;;;;;;;19.08;41.69;100702.78;5050956;28;20032;-39
2022/03/29 08:22:15;;;;;;;19.73;7.97;;;;;;;19.09;41.38;100693.84;5008074;28;20057;-40
2022/03/29 08:24:40;;;;;;;16.42;8.43;;;;;;;19.08;41.44;100691.41;5038281;28;20075;-40
2022/03/29 08:27:06;;;;;;;17.83;7.90;;;;;;;19.08;41.13;100680.84;5046194;28;20112;-40
2022/03/29 08:29:31;;;;;;;13.50;7.10;;;;;;;19.07;40.91;100684.50;5042846;28;20033;-42
2022/03/29 08:31:57;;;;;;;16.65;7.38;;;;;;;19.05;40.81;100678.59;5048267;28;20021;-40
2022/03/29 08:34:22;;;;;;;14.13;8.15;;;;;;;19.06;40.73;100682.84;5043998;28;20036;-40
2022/03/29 08:36:49;;;;;;;12.27;8.30;;;;;;;19.04;40.85;100682.22;5046318;28;20029;-39
2022/03/29 08:39:15;;;;;;;8.43;6.90;;;;;;;19.04;40.86;100679.59;5046067;28;20063;-39
2022/03/29 08:42:01;;;;;;;10.20;7.53;;;;;;;19.00;40.65;100678.34;5044244;28;20017;-39
2022/03/29 08:44:28;;;;;;;10.32;6.93;;;;;;;19.01;40.70;100691.34;5009073;28;20037;-40
2022/03/29 08:46:54;;;;;;;11.05;7.50;;;;;;;19.02;40.70;100692.16;5032324;28;20547;-39
2022/03/29 08:49:20;;;;;;;9.50;6.20;;;;;;;19.00;40.76;100679.16;5046100;28;20040;-40
2022/03/29 08:51:46;;;;;;;7.32;6.22;;;;;;;19.00;40.82;100681.81;5045011;28;20032;-39
2022/03/29 08:54:12;;;;;;;9.77;5.85;;;;;;;18.99;40.65;100679.34;5046323;28;20032;-39
2022/03/29 08:56:39;;;;;;;8.07;6.43;;;;;;;18.99;40.77;100672.25;5041434;28;20024;-40
2022/03/29 08:59:05;;;;;;;8.40;6.38;;;;;;;18.99;40.87;100669.59;5043168;28;20045;-40
2022/03/29 09:01:31;;;;;;;8.65;5.97;;;;;;;18.98;40.81;100660.06;5045913;28;20373;-40
2022/03/29 09:04:14;;;;;;;8.13;6.50;;;;;;;18.95;41.07;100665.72;5049305;28;20013;-40
2022/03/29 09:07:00;;;;;;;11.30;6.05;;;;;;;18.94;40.91;100653.53;5045207;28;20037;-39
2022/03/29 09:09:30;;;;;;;7.35;5.43;;;;;;;18.94;40.92;100653.53;5065080;28;20042;-39
2022/03/29 09:11:58;;;;;;;10.50;5.32;;;;;;;18.96;41.08;100653.34;5040567;28;20445;-39
2022/03/29 09:14:31;;;;;;;8.88;5.60;;;;;;;18.95;41.00;100652.53;5017244;28;20044;-40
2022/03/29 09:16:56;;;;;;;9.23;5.60;;;;;;;18.96;41.06;100651.50;5045507;28;20025;-41
2022/03/29 09:19:25;;;;;;;7.57;5.38;;;;;;;18.97;41.05;100642.59;5040921;28;20053;-40
2022/03/29 09:21:53;;;;;;;8.32;5.20;;;;;;;18.98;40.98;100635.47;5043920;28;20057;-40
2022/03/29 09:24:20;;;;;;;7.97;4.68;;;;;;;18.98;41.10;100638.94;5042890;28;20666;-40
2022/03/29 09:26:52;;;;;;;5.57;4.40;;;;;;;18.99;41.10;100634.47;5044693;28;20384;-41
2022/03/29 09:29:23;;;;;;;6.18;5.30;;;;;;;18.98;41.06;100628.38;5044675;28;20029;-40
2022/03/29 09:32:12;;;;;;;5.18;4.63;;;;;;;18.98;40.99;100630.19;5045352;28;20042;-40
2022/03/29 09:34:38;;;;;;;7.30;4.50;;;;;;;19.00;41.15;100625.53;5040347;28;20040;-42
2022/03/29 09:37:05;;;;;;;6.57;4.38;;;;;;;19.02;41.11;100634.09;5043422;28;20518;-41
2022/03/29 09:39:39;;;;;;;6.78;4.65;;;;;;;19.02;41.20;100628.81;5042579;28;20375;-40
2022/03/29 09:42:09;;;;;;;5.57;4.63;;;;;;;19.02;41.07;100631.44;5048027;28;20044;-40
2022/03/29 09:44:42;;;;;;;14.25;5.00;;;;;;;19.02;41.19;100629.63;5048187;28;20044;-43
2022/03/29 09:47:11;;;;;;;8.18;4.88;;;;;;;19.03;41.07;100625.16;5047964;28;20234;-41
2022/03/29 09:49:54;;;;;;;5.57;4.22;;;;;;;19.02;41.26;100620.88;5043124;28;20566;-41
2022/03/29 09:52:23;;;;;;;6.93;4.20;;;;;;;19.05;41.17;100621.31;5028715;28;20090;-40
2022/03/29 09:55:15;;;;;;;4.65;4.18;;;;;;;19.02;41.29;100624.34;5021299;28;20029;-39
2022/03/29 09:57:52;;;;;;;4.70;4.28;;;;;;;19.02;41.14;100611.13;5040151;28;20067;-40
2022/03/29 10:00:42;;;;;;;7.97;4.47;;;;;;;19.04;41.37;100618.88;5048841;28;20079;-42
2022/03/29 10:03:09;;;;;;;6.40;4.00;;;;;;;19.02;41.25;100611.13;5049062;28;20032;-40
2022/03/29 10:05:40;;;;;;;9.07;4.38;;;;;;;19.02;41.40;100612.97;5048102;28;20069;-41
2022/03/29 10:10:55;;;;;;;6.40;4.18;;;;;;;19.00;41.55;100601.78;5048973;28;20078;-40
2022/03/29 10:13:23;;;;;;;5.03;4.18;;;;;;;19.00;41.59;100599.13;5062054;28;20490;-40
2022/03/29 10:15:53;;;;;;;8.27;4.90;;;;;;;18.99;41.61;100603.59;5068467;28;20368;-40
2022/03/29 10:18:21;;;;;;;8.75;4.88;;;;;;;18.99;41.63;100598.31;5068292;28;20039;-40
2022/03/29 10:20:48;;;;;;;7.80;4.57;;;;;;;18.98;41.73;100595.88;5055982;28;20037;-39
2022/03/29 10:23:14;;;;;;;7.65;4.40;;;;;;;18.99;41.73;100597.50;5048545;28;20330;-40
2022/03/29 10:25:41;;;;;;;5.25;3.75;;;;;;;18.99;41.56;100587.75;5048446;28;20325;-40
2022/03/29 10:28:08;;;;;;;6.00;4.50;;;;;;;19.00;41.42;100583.28;5058658;28;20029;-39
2022/03/29 10:30:40;;;;;;;6.70;4.35;;;;;;;18.99;41.56;100571.09;5057775;28;20029;-39
2022/03/29 10:33:17;;;;;;;4.75;3.92;;;;;;;18.98;41.38;100559.72;5052471;28;20107;-41
2022/03/29 10:35:58;;;;;;;5.18;3.83;;;;;;;18.97;41.44;100554.66;5065853;28;20115;-43
2022/03/29 10:38:46;;;;;;;5.30;3.90;;;;;;;18.97;41.42;100555.47;5055085;28;20033;-39
2022/03/29 10:41:27;;;;;;;6.70;4.00;;;;;;;18.97;42.20;100558.09;5055680;28;20475;-39
2022/03/29 10:44:14;;;;;;;6.47;4.30;;;;;;;19.02;42.73;100554.88;5061387;28;20575;-37
2022/03/29 10:46:45;;;;;;;15.38;4.63;;;;;;;19.13;43.21;100551.66;5057395;28;20041;-40
2022/03/29 10:49:32;;;;;;;10.55;4.95;;;;;;;19.18;44.45;100543.97;5065491;28;20055;-40
2022/03/29 10:52:06;;;;;;;6.07;4.82;;;;;;;19.26;43.98;100542.97;5047560;28;20507;-39
2022/03/29 10:54:40;;;;;;;19.27;5.97;;;;;;;19.32;44.72;100550.13;5059798;28;20132;-38
2022/03/29 10:57:06;;;;;;;11.80;6.55;;;;;;;19.41;45.46;100541.78;5057117;28;20123;-38
2022/03/29 10:59:34;;;;;;;15.10;7.25;;;;;;;19.64;45.66;100535.34;5046927;28;20032;-41
2022/03/29 11:02:06;;;;;;;173.98;18.10;;;;;;;19.74;48.55;100533.94;5050209;28;20821;-43
2022/03/29 11:04:33;;;;;;;32.20;9.13;;;;;;;19.96;53.66;100533.72;5056954;28;20086;-40
2022/03/29 11:07:04;;;;;;;21.88;8.77;;;;;;;20.23;60.20;100521.31;5057690;28;20102;-41
2022/03/29 11:09:30;;;;;;;18.30;9.82;;;;;;;20.46;63.69;100516.38;5080833;28;20040;-41
2022/03/29 11:11:56;;;;;;;14.82;7.90;;;;;;;20.59;64.05;100512.88;5071260;28;20618;-39
2022/03/29 11:14:28;;;;;;;13.07;6.30;;;;;;;20.48;59.54;100512.50;5067029;28;20024;-39
2022/03/29 11:16:54;;;;;;;12.10;5.63;;;;;;;20.28;57.29;100505.63;5055050;28;20067;-41
2022/03/29 11:19:50;;;;;;;7.15;4.45;;;;;;;20.02;52.96;100499.34;5047590;28;20136;-43
2022/03/29 11:22:22;;;;;;;7.25;3.92;;;;;;;19.91;51.74;100499.16;5021604;28;20478;-38
2022/03/29 11:24:53;;;;;;;12.55;3.47;;;;;;;19.81;50.38;100497.75;5045978;28;20037;-39
2022/03/29 11:27:27;;;;;;;13.13;4.45;;;;;;;19.76;49.00;100494.91;5049096;28;20123;-41
2022/03/29 11:29:53;;;;;;;10.30;3.40;;;;;;;19.72;48.63;100483.09;5057781;28;20039;-43
2022/03/29 11:32:19;;;;;;;9.93;3.33;;;;;;;19.67;47.99;100474.16;5061245;28;20020;-40
2022/03/29 11:34:46;;;;;;;7.20;3.47;;;;;;;19.65;47.20;100470.91;5065110;28;20094;-39
2022/03/29 11:37:40;;;;;;;10.80;3.67;;;;;;;19.60;46.60;100463.59;5060116;28;20076;-40
2022/03/29 11:40:08;;;;;;;8.77;3.55;;;;;;;19.61;47.10;100467.84;5057569;28;20123;-40
2022/03/29 11:42:56;;;;;;;11.82;5.72;;;;;;;19.65;47.78;100461.16;5052749;28;20048;-38
2022/03/29 11:45:29;;;;;;;51.40;41.13;;;;;;;19.72;47.49;100450.56;5058398;28;20017;-42
2022/03/29 11:48:00;;;;;;;25.67;13.48;;;;;;;19.79;47.02;100448.75;5052887;28;20048;-41
2022/03/29 11:50:29;;;;;;;16.95;9.70;;;;;;;19.84;46.63;100441.00;5056426;28;20060;-39
2022/03/29 11:52:54;;;;;;;8.43;6.90;;;;;;;19.80;46.07;100435.31;5058100;28;20537;-40